createdAt,value
2016-07-09T00:02:05.430Z,41.6
2016-07-09T00:07:05.256Z,41.4
2016-07-09T00:12:05.569Z,41.3
2016-07-09T00:17:07.661Z,41.6
2016-07-09T00:22:05.581Z,41.6
2016-07-09T00:27:05.643Z,41.7
2016-07-09T00:32:05.819Z,41.8
2016-07-09T00:37:05.319Z,41.9
2016-07-09T00:42:05.690Z,41.7
2016-07-09T00:47:06.064Z,41.7
2016-07-09T00:52:05.658Z,41.8
2016-07-09T00:57:05.784Z,41.8
2016-07-09T01:02:05.514Z,42.6
2016-07-09T01:07:05.920Z,42.0
2016-07-09T01:12:05.212Z,42.0
2016-07-09T01:17:06.844Z,41.9
2016-07-09T01:22:05.213Z,42.0
2016-07-09T01:27:05.571Z,42.0
2016-07-09T01:32:05.329Z,41.9
2016-07-09T01:37:05.819Z,42.0
2016-07-09T01:42:05.376Z,42.0
2016-07-09T01:47:05.482Z,42.1
2016-07-09T01:52:05.797Z,41.9
2016-07-09T01:57:04.793Z,41.9
2016-07-09T02:02:05.861Z,41.8
2016-07-09T02:07:05.577Z,41.8
2016-07-09T02:12:06.186Z,41.8
2016-07-09T02:17:07.502Z,41.8
2016-07-09T02:22:05.038Z,41.8
2016-07-09T02:27:04.720Z,41.7
2016-07-09T02:32:05.738Z,41.9
2016-07-09T02:37:05.615Z,41.8
2016-07-09T02:42:05.770Z,41.8
2016-07-09T02:47:06.110Z,41.7
2016-07-09T02:52:05.478Z,41.7
2016-07-09T02:57:04.959Z,41.7
2016-07-09T03:02:18.601Z,41.7
2016-07-09T03:07:05.930Z,41.8
2016-07-09T03:12:04.928Z,42.0
2016-07-09T03:17:31.979Z,42.0
2016-07-09T03:22:04.164Z,41.9
2016-07-09T03:27:04.928Z,41.9
2016-07-09T03:32:29.305Z,42.0
2016-07-09T03:37:04.158Z,41.9
2016-07-09T03:42:04.979Z,41.9
2016-07-09T03:47:30.855Z,41.9
2016-07-09T03:52:04.963Z,41.7
2016-07-09T03:57:05.279Z,41.8
2016-07-09T04:02:29.569Z,41.9
2016-07-09T04:07:05.531Z,41.8
2016-07-09T04:12:05.292Z,41.8
2016-07-09T04:17:30.090Z,41.7
2016-07-09T04:22:04.411Z,41.7
2016-07-09T04:27:04.347Z,41.8
2016-07-09T04:32:30.385Z,41.8
2016-07-09T04:37:04.541Z,41.6
2016-07-09T04:42:04.606Z,41.7
2016-07-09T04:47:28.903Z,41.7
2016-07-09T04:52:04.518Z,41.5
2016-07-09T04:57:05.281Z,41.5
2016-07-09T05:02:27.899Z,41.3
2016-07-09T05:07:04.577Z,41.4
2016-07-09T05:12:05.364Z,41.3
2016-07-09T05:17:30.274Z,41.3
2016-07-09T05:22:04.240Z,41.3
2016-07-09T05:27:05.158Z,41.3
2016-07-09T05:32:29.783Z,41.4
2016-07-09T05:37:04.841Z,41.3
2016-07-09T05:42:04.646Z,41.4
2016-07-09T05:47:29.778Z,41.3
2016-07-09T05:52:04.509Z,41.3
2016-07-09T05:57:05.144Z,41.3
2016-07-09T06:02:29.383Z,41.4
2016-07-09T06:07:04.743Z,41.3
2016-07-09T06:12:04.627Z,41.3
2016-07-09T06:17:30.309Z,41.3
2016-07-09T06:22:05.306Z,41.3
2016-07-09T06:27:04.770Z,41.1
2016-07-09T06:32:29.404Z,41.1
2016-07-09T06:37:04.269Z,40.7
2016-07-09T06:42:05.355Z,40.4
2016-07-09T06:47:28.215Z,40.2
2016-07-09T06:52:04.686Z,40.7
2016-07-09T06:57:04.369Z,41.1
2016-07-09T07:02:33.637Z,40.3
2016-07-09T07:07:04.320Z,40.3
2016-07-09T07:12:04.073Z,40.0
2016-07-09T07:17:31.150Z,40.3
2016-07-09T07:22:04.563Z,40.3
2016-07-09T07:27:04.402Z,40.1
2016-07-09T07:32:30.746Z,40.4
2016-07-09T07:37:04.747Z,40.3
2016-07-09T07:42:05.646Z,40.3
2016-07-09T07:47:30.503Z,40.4
2016-07-09T07:52:04.147Z,40.4
2016-07-09T07:57:04.821Z,40.7
2016-07-09T08:02:30.731Z,40.3
2016-07-09T08:07:05.078Z,39.9
2016-07-09T08:12:04.203Z,40.3
2016-07-09T08:17:31.245Z,40.1
2016-07-09T08:22:04.703Z,40.8
2016-07-09T08:27:04.936Z,40.5
2016-07-09T08:32:31.549Z,40.7
2016-07-09T08:37:05.102Z,40.6
2016-07-09T08:42:04.191Z,40.5
2016-07-09T08:47:30.611Z,40.6
2016-07-09T08:52:04.200Z,40.3
2016-07-09T08:57:04.429Z,40.3
2016-07-09T09:02:31.387Z,40.2
2016-07-09T09:07:04.337Z,40.7
2016-07-09T09:12:04.461Z,40.7
2016-07-09T09:17:31.946Z,40.7
2016-07-09T09:22:04.867Z,40.9
2016-07-09T09:27:04.588Z,40.8
2016-07-09T09:32:30.819Z,41.2
2016-07-09T09:37:04.664Z,41.0
2016-07-09T09:42:04.801Z,41.6
2016-07-09T09:47:32.283Z,41.6
2016-07-09T09:52:05.304Z,41.1
2016-07-09T09:57:04.876Z,41.1
2016-07-09T10:02:35.007Z,40.8
2016-07-09T10:07:05.110Z,40.9
2016-07-09T10:12:05.147Z,41.1
2016-07-09T10:17:37.138Z,41.2
2016-07-09T10:22:04.500Z,40.8
2016-07-09T10:27:04.707Z,40.7
2016-07-09T10:32:30.224Z,41.0
2016-07-09T10:37:04.352Z,40.9
2016-07-09T10:42:04.792Z,40.8
2016-07-09T10:47:31.022Z,40.4
2016-07-09T10:52:04.162Z,40.4
2016-07-09T10:57:04.842Z,40.9
2016-07-09T11:02:32.494Z,40.8
2016-07-09T11:07:04.322Z,40.8
2016-07-09T11:12:04.242Z,41.1
2016-07-09T11:17:41.047Z,41.0
2016-07-09T11:22:04.380Z,41.3
2016-07-09T11:27:05.401Z,41.0
2016-07-09T11:32:37.851Z,40.9
2016-07-09T11:37:04.362Z,41.0
2016-07-09T11:42:04.850Z,40.7
2016-07-09T11:47:37.925Z,40.9
2016-07-09T11:52:05.070Z,41.3
2016-07-09T11:57:04.156Z,40.8
2016-07-09T12:02:36.663Z,41.0
2016-07-09T12:07:04.925Z,41.3
2016-07-09T12:12:03.907Z,41.4
2016-07-09T12:17:39.123Z,40.5
2016-07-09T12:22:05.167Z,40.6
2016-07-09T12:27:04.263Z,40.9
2016-07-09T12:32:30.627Z,41.1
2016-07-09T12:37:04.789Z,40.8
2016-07-09T12:42:04.313Z,40.6
2016-07-09T12:47:29.787Z,40.4
2016-07-09T12:52:04.940Z,41.1
2016-07-09T12:57:04.480Z,41.2
2016-07-09T13:02:38.599Z,41.0
2016-07-09T13:12:10.061Z,41.7
2016-07-09T13:17:39.825Z,40.8
2016-07-09T13:22:05.056Z,41.0
2016-07-09T13:27:05.022Z,41.0
2016-07-09T13:32:32.552Z,41.4
2016-07-09T13:37:05.145Z,41.3
2016-07-09T13:42:04.890Z,40.8
2016-07-09T13:47:34.131Z,41.3
2016-07-09T13:52:04.543Z,41.2
2016-07-09T13:57:05.372Z,41.1
2016-07-09T20:02:21.534Z,39.7
2016-07-09T20:07:05.321Z,40.1
2016-07-09T20:12:05.531Z,39.8
2016-07-09T20:17:10.441Z,39.9
2016-07-09T20:22:05.281Z,40.0
2016-07-09T20:27:05.827Z,40.0
2016-07-09T20:32:09.261Z,40.0
2016-07-09T20:37:05.927Z,40.0
2016-07-09T20:42:04.500Z,40.0
2016-07-09T20:47:06.341Z,40.1
2016-07-09T20:52:05.339Z,40.1
2016-07-09T20:57:05.369Z,39.9
2016-07-09T21:02:05.677Z,39.7
2016-07-09T21:07:05.149Z,39.7
2016-07-09T21:12:05.152Z,39.6
2016-07-09T21:17:07.723Z,39.6
2016-07-09T21:22:05.466Z,39.6
2016-07-09T21:27:05.300Z,39.8
2016-07-09T21:32:05.568Z,39.8
2016-07-09T21:37:04.527Z,39.8
2016-07-09T21:42:05.649Z,39.7
2016-07-09T21:47:05.496Z,39.8
2016-07-09T21:52:05.049Z,39.8
2016-07-09T21:57:05.554Z,39.8
2016-07-09T22:02:05.701Z,39.8
2016-07-09T22:07:05.900Z,40.0
2016-07-09T22:12:05.808Z,39.9
2016-07-09T22:17:07.578Z,39.9
2016-07-09T22:22:05.347Z,39.8
2016-07-09T22:27:05.982Z,39.8
2016-07-09T22:32:05.822Z,39.8
2016-07-09T22:37:05.504Z,39.8
2016-07-09T22:42:05.441Z,39.8
2016-07-09T22:47:06.058Z,39.9
2016-07-09T22:52:05.669Z,39.9
2016-07-09T22:57:05.734Z,39.8
2016-07-09T23:02:05.177Z,40.0
2016-07-09T23:07:05.583Z,39.8
2016-07-09T23:12:05.356Z,39.8
2016-07-09T23:17:06.851Z,39.7
2016-07-09T23:22:04.974Z,39.8
2016-07-09T23:27:05.886Z,39.8
2016-07-09T23:32:05.491Z,39.8
2016-07-09T23:37:05.912Z,39.8
2016-07-09T23:42:05.453Z,39.7
2016-07-09T23:47:05.388Z,39.7
2016-07-09T23:52:05.493Z,39.8
2016-07-09T23:57:05.266Z,39.8
